Terminal Aerodrome Forecast
Issued by NWS

Home | Current Version | Previous Version | Text Only | Print | Product List | Glossary On
Versions: 1 2 3 4 5 6 7 8 9 10 11 12 13
662
FTUS43 KTOP 061139
TAFFOE
TAF
KFOE 061139Z 0612/0712 29009KT P6SM FEW250
     FM061900 22009KT P6SM FEW250
     FM071100 27007KT P6SM SCT150=

USA.gov is the U.S. government's official web portal to all federal, state and local government web resources and services.